createdAt,value
2017-11-24T00:01:59.370Z,9.80
2017-11-24T00:04:28.215Z,9.80
2017-11-24T00:06:56.300Z,9.80
2017-11-24T00:09:24.381Z,9.80
2017-11-24T00:11:52.472Z,9.80
2017-11-24T00:14:21.321Z,9.80
2017-11-24T00:16:49.392Z,9.80
2017-11-24T00:19:17.470Z,9.80
2017-11-24T00:21:45.550Z,9.90
2017-11-24T00:24:13.617Z,9.90
2017-11-24T00:26:41.700Z,9.90
2017-11-24T00:29:09.785Z,9.90
2017-11-24T00:31:37.856Z,9.80
2017-11-24T00:34:05.934Z,9.90
2017-11-24T00:36:34.788Z,9.80
2017-11-24T00:39:02.860Z,9.80
2017-11-24T00:41:30.933Z,9.80
2017-11-24T00:43:59.010Z,9.80
2017-11-24T00:46:27.081Z,9.80
2017-11-24T00:48:55.152Z,9.70
2017-11-24T00:51:23.229Z,9.70
2017-11-24T00:53:51.314Z,9.70
2017-11-24T00:56:19.398Z,9.70
2017-11-24T00:58:47.475Z,9.60
2017-11-24T01:01:15.541Z,9.60
2017-11-24T01:03:43.620Z,9.60
2017-11-24T01:06:12.458Z,9.60
2017-11-24T01:08:40.537Z,9.60
2017-11-24T01:11:09.369Z,9.60
2017-11-24T01:13:37.456Z,9.60
2017-11-24T01:16:06.301Z,9.60
2017-11-24T01:18:34.369Z,9.60
2017-11-24T01:21:02.450Z,9.60
2017-11-24T01:23:30.538Z,9.60
2017-11-24T01:25:58.618Z,9.60
2017-11-24T01:28:26.697Z,9.60
2017-11-24T01:30:55.544Z,9.60
2017-11-24T01:33:23.620Z,9.50
2017-11-24T01:35:51.702Z,9.50
2017-11-24T01:38:19.788Z,9.50
2017-11-24T01:40:47.860Z,9.40
2017-11-24T01:43:15.939Z,9.40
2017-11-24T01:45:44.014Z,9.40
2017-11-24T01:48:12.089Z,9.40
2017-11-24T01:50:40.157Z,9.40
2017-11-24T01:53:08.241Z,9.30
2017-11-24T01:55:37.092Z,9.30
2017-11-24T01:58:05.576Z,9.20
2017-11-24T02:00:33.646Z,9.20
2017-11-24T02:03:01.818Z,9.20
2017-11-24T02:05:30.228Z,9.20
2017-11-24T02:07:58.306Z,9.10
2017-11-24T02:10:27.166Z,9.00
2017-11-24T02:12:55.250Z,9.10
2017-11-24T02:15:23.332Z,9.00
2017-11-24T02:17:51.409Z,9.00
2017-11-24T02:20:19.488Z,9.10
2017-11-24T02:22:48.334Z,9.10
2017-11-24T02:25:16.429Z,9.00
2017-11-24T02:27:44.507Z,9.00
2017-11-24T02:30:12.605Z,9.10
2017-11-24T02:32:41.484Z,9.00
2017-11-24T02:35:10.445Z,9.00
2017-11-24T02:37:38.518Z,9.00
2017-11-24T02:40:06.589Z,9.00
2017-11-24T02:42:34.665Z,9.00
2017-11-24T02:45:02.777Z,9.00
2017-11-24T02:47:31.673Z,8.90
2017-11-24T02:50:00.574Z,8.90
2017-11-24T02:52:28.715Z,8.90
2017-11-24T02:54:56.821Z,8.80
2017-11-24T02:57:25.000Z,8.80
2017-11-24T02:59:53.127Z,8.80
2017-11-24T03:02:21.255Z,8.80
2017-11-24T03:04:49.332Z,8.70
2017-11-24T03:07:17.408Z,8.70
2017-11-24T03:09:45.500Z,8.70
2017-11-24T03:12:13.601Z,8.60
2017-11-24T03:14:41.675Z,8.60
2017-11-24T03:17:10.521Z,8.50
2017-11-24T03:19:38.629Z,8.50
2017-11-24T03:22:06.692Z,8.50
2017-11-24T03:24:34.768Z,8.50
2017-11-24T03:27:02.842Z,8.40
2017-11-24T03:29:30.926Z,8.40
2017-11-24T03:31:59.001Z,8.40
2017-11-24T03:34:27.872Z,8.40
2017-11-24T03:36:55.950Z,8.40
2017-11-24T03:39:24.032Z,8.40
2017-11-24T03:41:52.096Z,8.40
2017-11-24T03:44:20.177Z,8.40
2017-11-24T03:46:48.250Z,8.40
2017-11-24T03:49:16.321Z,8.40
2017-11-24T03:51:44.402Z,8.40
2017-11-24T03:54:13.243Z,8.40
2017-11-24T03:56:41.321Z,8.40
2017-11-24T03:59:09.422Z,8.40
2017-11-24T04:01:37.504Z,8.40
2017-11-24T04:04:05.565Z,8.40
2017-11-24T04:06:33.645Z,8.40
2017-11-24T04:09:01.725Z,8.40
2017-11-24T04:11:29.788Z,8.40
2017-11-24T04:13:57.858Z,8.30
2017-11-24T04:16:25.936Z,8.40
2017-11-24T04:18:54.006Z,8.40
2017-11-24T04:21:22.097Z,8.40
2017-11-24T04:23:50.954Z,8.40
2017-11-24T04:26:19.052Z,8.40
2017-11-24T04:28:47.913Z,8.40
2017-11-24T04:31:16.007Z,8.40
2017-11-24T04:33:44.859Z,8.50
2017-11-24T04:36:12.952Z,8.40
2017-11-24T04:38:41.029Z,8.40
2017-11-24T04:41:09.119Z,8.40
2017-11-24T04:43:37.983Z,8.40
2017-11-24T04:46:06.076Z,8.40
2017-11-24T04:48:34.917Z,8.30
2017-11-24T04:51:03.014Z,8.30
2017-11-24T04:53:31.088Z,8.30
2017-11-24T04:55:59.160Z,8.30
2017-11-24T04:58:27.272Z,8.30
2017-11-24T05:00:56.114Z,8.20
2017-11-24T05:03:24.215Z,8.20
2017-11-24T05:05:53.073Z,8.20
2017-11-24T05:08:24.043Z,8.20
2017-11-24T05:10:52.901Z,8.20
2017-11-24T05:13:20.981Z,8.20
2017-11-24T05:15:49.052Z,8.20
2017-11-24T05:18:17.136Z,8.10
2017-11-24T05:20:45.200Z,8.20
2017-11-24T05:23:13.273Z,8.20
2017-11-24T05:25:41.341Z,8.10
2017-11-24T05:28:09.421Z,8.20
2017-11-24T05:30:37.493Z,8.20
2017-11-24T05:33:05.572Z,8.10
2017-11-24T05:35:33.652Z,8.10
2017-11-24T05:38:01.723Z,8.10
2017-11-24T05:40:29.793Z,8.00
2017-11-24T05:42:57.874Z,8.00
2017-11-24T05:45:25.955Z,8.00
2017-11-24T05:47:54.800Z,7.90
2017-11-24T05:50:22.873Z,7.90
2017-11-24T05:52:50.957Z,7.90
2017-11-24T05:55:19.025Z,7.90
2017-11-24T05:57:47.112Z,7.90
2017-11-24T06:00:15.173Z,7.90
2017-11-24T06:02:43.257Z,7.90
2017-11-24T06:05:11.333Z,7.90
2017-11-24T06:07:39.416Z,7.90
2017-11-24T06:10:07.497Z,7.90
2017-11-24T06:12:36.350Z,8.00
2017-11-24T06:15:04.432Z,8.00
2017-11-24T06:17:32.496Z,8.00
2017-11-24T06:20:00.607Z,8.00
2017-11-24T06:22:29.449Z,8.00
2017-11-24T06:24:57.534Z,8.00
2017-11-24T06:27:25.617Z,8.00
2017-11-24T06:29:53.696Z,8.10
2017-11-24T06:32:21.760Z,8.10
2017-11-24T06:34:49.846Z,8.10
2017-11-24T06:37:17.953Z,8.10
2017-11-24T06:39:46.036Z,8.20
2017-11-24T06:42:14.099Z,8.20
2017-11-24T06:44:42.202Z,8.20
2017-11-24T06:47:10.273Z,8.30
2017-11-24T06:49:38.369Z,8.30
2017-11-24T06:52:06.442Z,8.30
2017-11-24T06:54:34.535Z,8.40
2017-11-24T06:57:03.389Z,8.40
2017-11-24T06:59:31.525Z,8.40
2017-11-24T07:01:59.610Z,8.40
2017-11-24T07:04:30.512Z,8.50
2017-11-24T07:06:59.361Z,8.40
2017-11-24T07:09:27.465Z,8.40
2017-11-24T07:11:56.310Z,8.50
2017-11-24T07:14:24.387Z,8.50
2017-11-24T07:16:52.474Z,8.50
2017-11-24T07:19:20.540Z,8.50
2017-11-24T07:21:48.649Z,8.50
2017-11-24T07:24:17.504Z,8.60
2017-11-24T07:26:45.713Z,8.60
2017-11-24T07:29:14.546Z,8.70
2017-11-24T07:31:43.393Z,8.70
2017-11-24T07:34:12.246Z,8.80
2017-11-24T07:36:40.340Z,8.80
2017-11-24T07:39:08.438Z,8.80
2017-11-24T07:41:37.306Z,8.90
2017-11-24T07:44:05.380Z,8.90
2017-11-24T07:46:33.468Z,9.00
2017-11-24T07:49:02.329Z,9.00
2017-11-24T07:51:30.413Z,9.00
2017-11-24T07:53:58.509Z,9.00
2017-11-24T07:56:27.358Z,9.10
2017-11-24T07:58:55.451Z,9.10
2017-11-24T08:01:23.520Z,9.10
2017-11-24T08:03:51.609Z,9.20
2017-11-24T08:06:19.680Z,9.20
2017-11-24T08:08:47.757Z,9.20
2017-11-24T08:11:16.597Z,9.30
2017-11-24T08:13:45.439Z,9.30
2017-11-24T08:16:13.509Z,9.30
2017-11-24T08:18:42.360Z,9.30
2017-11-24T08:21:10.438Z,9.40
2017-11-24T08:23:38.525Z,9.40
2017-11-24T08:26:06.599Z,9.40
2017-11-24T08:28:34.667Z,9.40
2017-11-24T08:31:02.735Z,9.40
2017-11-24T08:33:30.817Z,9.40
2017-11-24T08:35:58.909Z,9.50
2017-11-24T08:38:27.748Z,9.60
2017-11-24T08:40:55.838Z,9.60
2017-11-24T08:43:23.918Z,9.60
2017-11-24T08:45:52.033Z,9.70
2017-11-24T08:48:25.597Z,9.80
2017-11-24T08:50:53.680Z,9.90
2017-11-24T08:53:21.761Z,10.00
2017-11-24T08:55:50.613Z,10.10
2017-11-24T08:58:18.705Z,10.10
2017-11-24T09:00:46.784Z,10.10
2017-11-24T09:03:14.873Z,10.20
2017-11-24T09:05:43.728Z,10.40
2017-11-24T09:08:11.810Z,10.30
2017-11-24T09:10:39.880Z,10.40
2017-11-24T09:13:07.974Z,10.50
2017-11-24T09:15:36.829Z,10.60
2017-11-24T09:18:04.905Z,10.60
2017-11-24T09:20:32.990Z,10.70
2017-11-24T09:23:01.077Z,10.80
2017-11-24T09:25:30.227Z,10.80
2017-11-24T09:27:59.061Z,10.90
2017-11-24T09:30:27.144Z,10.80
2017-11-24T09:32:55.999Z,11.10
2017-11-24T09:35:24.084Z,11.00
2017-11-24T09:37:52.164Z,11.10
2017-11-24T09:40:20.247Z,11.20
2017-11-24T09:42:49.092Z,11.40
2017-11-24T09:45:17.176Z,11.30
2017-11-24T09:47:45.245Z,11.40
2017-11-24T09:50:13.329Z,11.50
2017-11-24T09:52:41.405Z,11.50
2017-11-24T09:55:09.489Z,11.60
2017-11-24T09:57:37.569Z,11.70
2017-11-24T10:00:06.427Z,11.70
2017-11-24T10:02:34.530Z,11.70
2017-11-24T10:05:02.624Z,11.80
2017-11-24T10:07:30.723Z,11.90
2017-11-24T10:09:58.822Z,11.90
2017-11-24T10:12:26.918Z,11.90
2017-11-24T10:14:54.997Z,12.00
2017-11-24T10:17:23.856Z,12.10
2017-11-24T10:19:51.926Z,12.10
2017-11-24T10:22:25.780Z,12.10
2017-11-24T10:24:53.791Z,12.10
2017-11-24T10:27:21.872Z,12.20
2017-11-24T10:29:49.965Z,12.30
2017-11-24T10:32:18.053Z,12.30
2017-11-24T10:34:46.898Z,12.60
2017-11-24T10:37:14.981Z,12.60
2017-11-24T10:39:43.061Z,12.60
2017-11-24T10:42:11.152Z,12.70
2017-11-24T10:44:39.224Z,12.80
2017-11-24T10:47:07.288Z,12.90
2017-11-24T10:49:35.373Z,12.90
2017-11-24T10:52:03.449Z,13.00
2017-11-24T10:54:32.306Z,13.20
2017-11-24T10:57:00.381Z,13.20
2017-11-24T10:59:28.465Z,13.30
2017-11-24T11:01:56.544Z,13.30
2017-11-24T11:04:24.620Z,13.40
2017-11-24T11:06:52.693Z,13.50
2017-11-24T11:09:20.773Z,13.60
2017-11-24T11:11:48.836Z,13.80
2017-11-24T11:14:16.917Z,13.80
2017-11-24T11:16:45.757Z,13.90
2017-11-24T11:19:13.832Z,13.90
2017-11-24T11:21:41.906Z,13.90
2017-11-24T11:24:10.760Z,13.90
2017-11-24T11:26:39.593Z,13.90
2017-11-24T11:29:07.685Z,13.90
2017-11-24T11:31:35.779Z,14.00
2017-11-24T11:34:04.630Z,14.20
2017-11-24T11:36:32.710Z,14.20
2017-11-24T11:39:00.788Z,14.10
2017-11-24T11:41:28.873Z,14.10
2017-11-24T11:43:56.956Z,14.00
2017-11-24T11:46:25.808Z,14.10
2017-11-24T11:48:53.896Z,14.00
2017-11-24T11:51:21.977Z,14.00
2017-11-24T11:53:50.056Z,14.00
2017-11-24T11:56:18.133Z,14.00
2017-11-24T11:58:46.209Z,14.10
2017-11-24T12:01:15.048Z,14.10
2017-11-24T12:03:43.165Z,14.10
2017-11-24T12:06:11.235Z,14.00
2017-11-24T12:08:39.317Z,14.00
2017-11-24T12:11:08.173Z,14.10
2017-11-24T12:13:36.241Z,14.10
2017-11-24T12:16:04.342Z,14.00
2017-11-24T12:18:32.405Z,14.00
2017-11-24T12:21:00.489Z,13.90
2017-11-24T12:23:28.561Z,13.90
2017-11-24T12:25:57.013Z,13.90
2017-11-24T12:28:25.092Z,13.90
2017-11-24T12:30:53.204Z,13.90
2017-11-24T12:33:21.256Z,14.00
2017-11-24T12:35:49.341Z,14.00
2017-11-24T12:38:18.181Z,14.10
2017-11-24T12:40:46.278Z,14.20
2017-11-24T12:43:14.358Z,14.20
2017-11-24T12:45:42.437Z,14.20
2017-11-24T12:48:10.539Z,14.20
2017-11-24T12:50:38.637Z,14.20
2017-11-24T12:53:06.706Z,14.20
2017-11-24T12:55:34.797Z,14.10
2017-11-24T12:58:02.873Z,14.10
2017-11-24T13:00:30.969Z,14.10
2017-11-24T13:02:59.061Z,14.10
2017-11-24T13:05:27.909Z,13.90
2017-11-24T13:07:55.984Z,13.90
2017-11-24T13:10:24.077Z,13.90
2017-11-24T13:12:52.154Z,13.80
2017-11-24T13:15:20.245Z,13.80
2017-11-24T13:17:49.089Z,13.80
2017-11-24T13:20:17.177Z,13.80
2017-11-24T13:22:45.261Z,13.80
2017-11-24T13:25:13.341Z,13.70
2017-11-24T13:27:42.188Z,13.50
2017-11-24T13:30:10.268Z,13.50
2017-11-24T13:32:38.341Z,13.40
2017-11-24T13:35:06.420Z,13.40
2017-11-24T13:37:34.517Z,13.40
2017-11-24T13:40:03.381Z,13.30
2017-11-24T13:42:31.468Z,13.30
2017-11-24T13:44:59.546Z,13.30
2017-11-24T13:47:27.617Z,13.30
2017-11-24T13:49:55.688Z,13.20
2017-11-24T13:52:23.782Z,13.20
2017-11-24T13:54:52.641Z,13.20
2017-11-24T13:57:20.733Z,13.20
2017-11-24T13:59:49.585Z,13.20
2017-11-24T14:02:17.678Z,13.20
2017-11-24T14:04:45.766Z,13.10
2017-11-24T14:07:13.866Z,13.10
2017-11-24T14:09:41.946Z,13.10
2017-11-24T14:12:10.046Z,13.20
2017-11-24T14:14:38.141Z,13.20
2017-11-24T14:17:06.230Z,13.20
2017-11-24T14:19:34.313Z,13.20
2017-11-24T14:22:03.164Z,13.20
2017-11-24T14:24:31.271Z,13.20
2017-11-24T14:27:00.126Z,13.20
2017-11-24T14:29:28.209Z,13.20
2017-11-24T14:31:56.297Z,13.20
2017-11-24T14:34:24.380Z,13.20
2017-11-24T14:36:53.230Z,13.20
2017-11-24T14:39:21.328Z,13.20
2017-11-24T14:41:49.406Z,13.10
2017-11-24T14:44:17.639Z,13.10
2017-11-24T14:46:45.740Z,13.10
2017-11-24T14:49:13.819Z,13.10
2017-11-24T14:51:41.917Z,13.10
2017-11-24T14:54:10.013Z,13.10
2017-11-24T14:56:38.104Z,13.10
2017-11-24T14:59:06.189Z,13.10
2017-11-24T15:01:34.285Z,13.10
2017-11-24T15:04:02.365Z,13.00
2017-11-24T15:06:30.444Z,13.10
2017-11-24T15:08:59.313Z,13.00
2017-11-24T15:11:27.402Z,13.00
2017-11-24T15:13:55.535Z,13.00
2017-11-24T15:16:23.630Z,13.10
2017-11-24T15:18:51.726Z,13.00
2017-11-24T15:21:20.564Z,13.10
2017-11-24T15:23:48.864Z,13.10
2017-11-24T15:26:16.940Z,13.00
2017-11-24T15:28:46.105Z,13.00
2017-11-24T15:31:14.185Z,13.10
2017-11-24T15:33:42.287Z,13.10
2017-11-24T15:36:10.366Z,13.10
2017-11-24T15:38:38.453Z,13.10
2017-11-24T15:41:07.306Z,13.10
2017-11-24T15:43:35.418Z,13.10
2017-11-24T15:46:04.266Z,13.10
2017-11-24T15:48:32.351Z,13.10
2017-11-24T15:51:00.436Z,13.10
2017-11-24T15:53:29.313Z,13.00
2017-11-24T15:55:57.375Z,13.10
2017-11-24T15:58:25.453Z,13.10
2017-11-24T16:00:53.543Z,13.00
2017-11-24T16:03:21.673Z,13.00
2017-11-24T16:05:49.765Z,13.00
2017-11-24T16:08:17.863Z,13.00
2017-11-24T16:10:46.781Z,13.00
2017-11-24T16:13:14.865Z,13.00
2017-11-24T16:15:44.765Z,13.00
2017-11-24T16:18:13.612Z,13.00
2017-11-24T16:20:41.693Z,12.90
2017-11-24T16:23:09.782Z,12.90
2017-11-24T16:25:38.664Z,12.90
2017-11-24T16:28:06.746Z,12.90
2017-11-24T16:30:35.592Z,12.90
2017-11-24T16:33:03.673Z,12.90
2017-11-24T16:35:31.765Z,12.90
2017-11-24T16:37:59.854Z,12.90
2017-11-24T16:40:28.697Z,12.90
2017-11-24T16:42:56.784Z,12.90
2017-11-24T16:45:24.896Z,12.80
2017-11-24T16:47:53.743Z,12.80
2017-11-24T16:50:21.821Z,12.80
2017-11-24T16:52:49.969Z,12.80
2017-11-24T16:55:18.053Z,12.80
2017-11-24T16:57:46.162Z,12.70
2017-11-24T17:00:14.241Z,12.70
2017-11-24T17:02:43.092Z,12.70
2017-11-24T17:05:11.189Z,12.70
2017-11-24T17:07:39.261Z,12.70
2017-11-24T17:10:07.344Z,12.60
2017-11-24T17:12:37.019Z,12.60
2017-11-24T17:15:05.180Z,12.60
2017-11-24T17:17:33.324Z,12.60
2017-11-24T17:20:02.189Z,12.60
2017-11-24T17:22:30.264Z,12.60
2017-11-24T17:24:59.145Z,12.50
2017-11-24T17:27:27.223Z,12.60
2017-11-24T17:29:55.369Z,12.60
2017-11-24T17:32:23.441Z,12.50
2017-11-24T17:34:51.538Z,12.50
2017-11-24T17:37:19.622Z,12.50
2017-11-24T17:39:48.486Z,12.50
2017-11-24T17:42:16.589Z,12.50
2017-11-24T17:44:45.436Z,12.50
2017-11-24T17:47:13.536Z,12.50
2017-11-24T17:49:41.611Z,12.50
2017-11-24T17:52:09.699Z,12.40
2017-11-24T17:54:38.554Z,12.40
2017-11-24T17:57:06.659Z,12.40
2017-11-24T17:59:35.512Z,12.40
2017-11-24T18:02:03.585Z,12.40
2017-11-24T18:04:31.686Z,12.40
2017-11-24T18:06:59.792Z,12.40
2017-11-24T18:09:28.636Z,12.40
2017-11-24T18:11:56.722Z,12.40
2017-11-24T18:14:25.587Z,12.30
2017-11-24T18:16:53.658Z,12.30
2017-11-24T18:19:21.745Z,12.30
2017-11-24T18:21:49.830Z,12.30
2017-11-24T18:24:17.918Z,12.40
2017-11-24T18:26:46.765Z,12.40
2017-11-24T18:29:14.867Z,12.30
2017-11-24T18:31:42.953Z,12.40
2017-11-24T18:34:11.805Z,12.30
2017-11-24T18:36:39.897Z,12.30
2017-11-24T18:39:08.127Z,12.30
2017-11-24T18:41:36.271Z,12.30
2017-11-24T18:44:05.119Z,12.30
2017-11-24T18:46:33.230Z,12.30
2017-11-24T18:49:02.078Z,12.30
2017-11-24T18:51:30.165Z,12.30
2017-11-24T18:53:58.251Z,12.30
2017-11-24T18:56:27.113Z,12.30
2017-11-24T18:58:55.184Z,12.30
2017-11-24T19:01:23.301Z,12.30
2017-11-24T19:03:52.148Z,12.30
2017-11-24T19:06:20.227Z,12.30
2017-11-24T19:08:48.382Z,12.30
2017-11-24T19:11:16.461Z,12.20
2017-11-24T19:13:44.552Z,12.30
2017-11-24T19:16:12.646Z,12.20
2017-11-24T19:18:41.505Z,12.30
2017-11-24T19:21:10.442Z,12.30
2017-11-24T19:23:38.557Z,12.20
2017-11-24T19:26:06.669Z,12.30
2017-11-24T19:28:34.767Z,12.20
2017-11-24T19:31:02.932Z,12.20
2017-11-24T19:33:31.814Z,12.20
2017-11-24T19:36:00.693Z,12.20
2017-11-24T19:38:28.772Z,12.20
2017-11-24T19:40:57.656Z,12.10
2017-11-24T19:43:26.577Z,12.10
2017-11-24T19:45:54.692Z,12.10
2017-11-24T19:48:22.801Z,12.10
2017-11-24T19:50:51.689Z,12.10
2017-11-24T19:53:20.575Z,12.10
2017-11-24T19:55:48.685Z,12.00
2017-11-24T19:58:16.782Z,12.00
2017-11-24T20:00:45.681Z,12.00
2017-11-24T20:03:13.793Z,12.00
2017-11-24T20:05:41.929Z,11.90
2017-11-24T20:08:10.029Z,12.00
2017-11-24T20:10:38.136Z,11.90
2017-11-24T20:13:06.231Z,11.90
2017-11-24T20:15:34.335Z,11.90
2017-11-24T20:18:02.464Z,11.90
2017-11-24T20:20:30.559Z,11.90
2017-11-24T20:22:58.660Z,11.80
2017-11-24T20:25:26.750Z,11.80
2017-11-24T20:27:55.654Z,11.70
2017-11-24T20:30:24.628Z,11.80
2017-11-24T20:32:52.743Z,11.80
2017-11-24T20:35:20.833Z,11.80
2017-11-24T20:37:48.929Z,11.80
2017-11-24T20:40:17.018Z,11.70
2017-11-24T20:42:45.117Z,11.80
2017-11-24T20:45:14.015Z,11.60
2017-11-24T20:47:42.123Z,11.60
2017-11-24T20:50:10.215Z,11.70
2017-11-24T20:52:38.501Z,11.70
2017-11-24T20:55:06.613Z,11.60
2017-11-24T20:57:34.715Z,11.70
2017-11-24T21:00:02.826Z,11.70
2017-11-24T21:02:31.743Z,11.60
2017-11-24T21:04:59.889Z,11.50
2017-11-24T21:07:27.983Z,11.60
2017-11-24T21:09:56.858Z,11.50
2017-11-24T21:12:25.735Z,11.50
2017-11-24T21:14:53.889Z,11.50
2017-11-24T21:17:22.001Z,11.50
2017-11-24T21:19:50.876Z,11.40
2017-11-24T21:22:18.975Z,11.40
2017-11-24T21:24:47.104Z,11.40
2017-11-24T21:27:15.209Z,11.40
2017-11-24T21:29:44.107Z,11.40
2017-11-24T21:32:13.049Z,11.40
2017-11-24T21:34:41.183Z,11.30
2017-11-24T21:37:09.285Z,11.40
2017-11-24T21:39:37.421Z,11.30
2017-11-24T21:42:06.278Z,11.20
2017-11-24T21:44:34.410Z,11.20
2017-11-24T21:47:02.509Z,11.20
2017-11-24T21:49:30.621Z,11.20
2017-11-24T21:51:58.743Z,11.20
2017-11-24T21:54:26.853Z,11.20
2017-11-24T21:56:54.946Z,11.20
2017-11-24T21:59:23.823Z,11.10
2017-11-24T22:01:51.969Z,11.10
2017-11-24T22:04:20.086Z,11.10
2017-11-24T22:06:48.982Z,11.00
2017-11-24T22:09:17.097Z,11.00
2017-11-24T22:11:45.202Z,11.00
2017-11-24T22:14:13.278Z,11.00
2017-11-24T22:16:41.383Z,11.00
2017-11-24T22:19:09.490Z,11.20
2017-11-24T22:21:38.333Z,11.10
2017-11-24T22:24:07.214Z,11.10
2017-11-24T22:26:36.074Z,11.10
2017-11-24T22:29:04.153Z,11.10
2017-11-24T22:31:32.241Z,11.10
2017-11-24T22:34:00.322Z,11.00
2017-11-24T22:36:29.181Z,11.00
2017-11-24T22:38:57.268Z,11.00
2017-11-24T22:41:25.356Z,11.00
2017-11-24T22:43:54.213Z,11.00
2017-11-24T22:46:22.310Z,11.00
2017-11-24T22:48:50.392Z,10.90
2017-11-24T22:51:19.267Z,10.90
2017-11-24T22:53:47.354Z,10.80
2017-11-24T22:56:16.213Z,10.90
2017-11-24T22:58:44.297Z,10.90
2017-11-24T23:01:12.380Z,10.90
2017-11-24T23:03:40.458Z,10.90
2017-11-24T23:06:08.536Z,10.90
2017-11-24T23:08:37.412Z,10.90
2017-11-24T23:11:05.503Z,10.80
2017-11-24T23:13:34.353Z,10.90
2017-11-24T23:16:02.455Z,10.90
2017-11-24T23:18:30.559Z,10.80
2017-11-24T23:20:59.542Z,10.90
2017-11-24T23:23:27.676Z,10.90
2017-11-24T23:25:55.767Z,10.90
2017-11-24T23:28:24.637Z,10.80
2017-11-24T23:30:52.737Z,10.80
2017-11-24T23:33:21.593Z,10.80
2017-11-24T23:35:49.689Z,10.70
2017-11-24T23:38:17.795Z,10.70
2017-11-24T23:40:45.879Z,10.70
2017-11-24T23:43:13.966Z,10.70
2017-11-24T23:45:42.083Z,10.70
2017-11-24T23:48:10.970Z,10.60
2017-11-24T23:50:39.057Z,10.60
2017-11-24T23:53:07.917Z,10.60
2017-11-24T23:55:36.000Z,10.60
2017-11-24T23:58:04.107Z,10.60
